Time,TemperatureF,DewpointF,PressureIn,WindDirection,WindDirectionDegrees,WindSpeedMPH,WindSpeedGustMPH,Humidity,HourlyPrecipIn,Conditions,Clouds,dailyrainin,SoftwareType,DateUTC
2013-09-18 00:02:00,66.1,60.2,29.49,SE,144,0.9,2.7,81,0.00,,,0.00,WUHU216HW,2013-09-18 05:02:00,
2013-09-18 00:07:00,66.2,60.3,29.48,South,180,2.7,3.8,81,0.00,,,0.00,WUHU216HW,2013-09-18 05:07:00,
2013-09-18 00:12:00,66.2,60.3,29.48,SW,225,1.8,3.8,81,0.00,,,0.00,WUHU216HW,2013-09-18 05:12:00,
2013-09-18 00:17:00,66.2,60.3,29.48,SE,135,1.1,3.1,81,0.00,,,0.00,WUHU216HW,2013-09-18 05:17:00,
2013-09-18 00:22:00,66.2,60.3,29.48,SW,225,2.5,2.5,81,0.00,,,0.00,WUHU216HW,2013-09-18 05:22:00,
2013-09-18 00:27:00,66.2,60.3,29.49,SE,143,1.3,2.5,81,0.00,,,0.00,WUHU216HW,2013-09-18 05:27:00,
2013-09-18 00:31:00,66.2,60.3,29.49,SSE,158,1.8,2.5,81,0.00,,,0.00,WUHU216HW,2013-09-18 05:31:00,
2013-09-18 00:36:00,66.2,60.3,29.49,ESE,103,1.1,2.5,81,0.00,,,0.00,WUHU216HW,2013-09-18 05:36:00,
2013-09-18 00:41:00,66.2,60.3,29.49,South,180,1.6,2.7,81,0.00,,,0.00,WUHU216HW,2013-09-18 05:41:00,
2013-09-18 00:46:00,66.1,60.5,29.48,South,170,0.8,2.7,82,0.00,,,0.00,WUHU216HW,2013-09-18 05:46:00,
2013-09-18 00:51:00,66.1,60.5,29.48,SE,133,1.0,2.2,82,0.00,,,0.00,WUHU216HW,2013-09-18 05:51:00,
2013-09-18 00:56:00,65.9,60.3,29.48,SW,214,0.7,2.2,82,0.00,,,0.00,WUHU216HW,2013-09-18 05:56:00,
2013-09-18 01:01:00,65.9,60.7,29.49,SW,225,0.4,1.3,83,0.00,,,0.00,WUHU216HW,2013-09-18 06:01:00,
2013-09-18 01:06:00,65.9,60.7,29.49,SE,135,0.5,2.7,83,0.00,,,0.00,WUHU216HW,2013-09-18 06:06:00,
2013-09-18 01:11:00,65.9,60.7,29.49,SW,225,1.1,2.7,83,0.00,,,0.00,WUHU216HW,2013-09-18 06:11:00,
2013-09-18 01:16:00,65.9,60.7,29.48,SW,232,0.6,1.8,83,0.00,,,0.00,WUHU216HW,2013-09-18 06:16:00,
2013-09-18 01:21:00,65.9,60.7,29.48,SSE,158,0.9,1.3,83,0.00,,,0.00,WUHU216HW,2013-09-18 06:21:00,
2013-09-18 01:26:00,65.9,60.7,29.48,SSE,158,0.4,1.1,83,0.00,,,0.00,WUHU216HW,2013-09-18 06:26:00,
2013-09-18 01:31:00,65.9,60.7,29.49,SSW,203,1.1,1.8,83,0.00,,,0.00,WUHU216HW,2013-09-18 06:31:00,
2013-09-18 01:36:00,65.9,60.7,29.49,South,180,1.1,1.8,83,0.00,,,0.00,WUHU216HW,2013-09-18 06:36:00,
2013-09-18 01:41:00,65.9,60.7,29.49,East,90,0.4,1.3,83,0.00,,,0.00,WUHU216HW,2013-09-18 06:41:00,
2013-09-18 01:46:00,65.9,60.7,29.49,SE,146,0.8,1.8,83,0.00,,,0.00,WUHU216HW,2013-09-18 06:46:00,
2013-09-18 01:51:00,65.9,60.7,29.48,SE,135,1.8,1.8,83,0.00,,,0.00,WUHU216HW,2013-09-18 06:51:00,
2013-09-18 01:56:00,65.9,60.7,29.48,East,90,0.9,1.8,83,0.00,,,0.00,WUHU216HW,2013-09-18 06:56:00,
2013-09-18 02:01:00,65.9,60.7,29.48,SE,126,1.0,1.8,83,0.00,,,0.00,WUHU216HW,2013-09-18 07:01:00,
2013-09-18 02:06:00,65.9,60.7,29.48,SSW,193,0.8,1.8,83,0.00,,,0.00,WUHU216HW,2013-09-18 07:06:00,
2013-09-18 02:11:00,65.9,60.7,29.48,SE,135,1.8,1.8,83,0.00,,,0.00,WUHU216HW,2013-09-18 07:11:00,
2013-09-18 02:16:00,65.9,61.0,29.48,ESE,113,1.3,2.0,84,0.00,,,0.00,WUHU216HW,2013-09-18 07:16:00,
2013-09-18 02:21:00,65.9,60.7,29.47,SSE,155,1.1,2.2,83,0.00,,,0.00,WUHU216HW,2013-09-18 07:21:00,
2013-09-18 02:26:00,65.9,60.7,29.48,SSW,203,0.7,2.2,83,0.00,,,0.00,WUHU216HW,2013-09-18 07:26:00,
2013-09-18 02:31:00,65.7,60.5,29.48,SE,135,2.0,2.0,83,0.00,,,0.00,WUHU216HW,2013-09-18 07:31:00,
2013-09-18 02:36:00,65.5,60.6,29.47,South,175,0.8,2.0,84,0.00,,,0.00,WUHU216HW,2013-09-18 07:36:00,
2013-09-18 02:41:00,65.2,60.3,29.47,East,90,0.9,1.6,84,0.00,,,0.00,WUHU216HW,2013-09-18 07:41:00,
2013-09-18 02:46:00,64.8,60.2,29.47,South,170,1.6,2.5,85,0.00,,,0.00,WUHU216HW,2013-09-18 07:46:00,
2013-09-18 02:51:00,64.8,60.2,29.47,SSE,149,0.8,2.5,85,0.00,,,0.00,WUHU216HW,2013-09-18 07:51:00,
2013-09-18 02:56:00,64.6,59.7,29.47,SE,126,0.7,1.8,84,0.00,,,0.00,WUHU216HW,2013-09-18 07:56:00,
2013-09-18 03:01:00,64.4,59.5,29.47,East,90,1.3,1.6,84,0.00,,,0.00,WUHU216HW,2013-09-18 08:01:00,
2013-09-18 03:06:00,64.4,59.8,29.47,SSE,158,0.7,1.8,85,0.00,,,0.00,WUHU216HW,2013-09-18 08:06:00,
2013-09-18 03:11:00,64.4,59.5,29.47,South,180,0.4,1.8,84,0.00,,,0.00,WUHU216HW,2013-09-18 08:11:00,
2013-09-18 03:16:00,64.3,59.4,29.46,East,90,0.9,1.6,84,0.00,,,0.00,WUHU216HW,2013-09-18 08:16:00,
2013-09-18 03:21:00,64.1,59.5,29.46,SSW,203,0.4,0.9,85,0.00,,,0.00,WUHU216HW,2013-09-18 08:21:00,
2013-09-18 03:26:00,63.9,59.7,29.46,South,179,0.6,1.3,86,0.00,,,0.00,WUHU216HW,2013-09-18 08:26:00,
2013-09-18 03:31:00,63.7,59.5,29.46,SSE,158,0.7,1.3,86,0.00,,,0.00,WUHU216HW,2013-09-18 08:31:00,
2013-09-18 03:36:00,63.5,59.3,29.45,WSW,248,0.7,0.9,86,0.00,,,0.00,WUHU216HW,2013-09-18 08:36:00,
2013-09-18 03:41:00,63.4,59.2,29.45,SSW,203,0.0,0.7,86,0.00,,,0.00,WUHU216HW,2013-09-18 08:41:00,
2013-09-18 03:46:00,63.0,58.5,29.45,SE,138,0.4,0.7,85,0.00,,,0.00,WUHU216HW,2013-09-18 08:46:00,
2013-09-18 03:51:00,63.0,58.8,29.45,ESE,123,0.6,0.9,86,0.00,,,0.00,WUHU216HW,2013-09-18 08:51:00,
2013-09-18 03:56:00,62.8,58.6,29.45,SE,133,0.4,1.1,86,0.00,,,0.00,WUHU216HW,2013-09-18 08:56:00,
2013-09-18 04:01:00,62.8,58.6,29.45,SE,135,0.4,1.1,86,0.00,,,0.00,WUHU216HW,2013-09-18 09:01:00,
2013-09-18 04:06:00,62.6,58.4,29.45,East,93,0.5,0.9,86,0.00,,,0.00,WUHU216HW,2013-09-18 09:06:00,
2013-09-18 04:11:00,62.5,58.6,29.45,ESE,103,0.3,1.1,87,0.00,,,0.00,WUHU216HW,2013-09-18 09:11:00,
2013-09-18 04:16:00,62.3,58.4,29.44,SE,135,0.4,1.1,87,0.00,,,0.00,WUHU216HW,2013-09-18 09:16:00,
2013-09-18 04:21:00,62.3,58.4,29.44,SE,140,0.6,1.1,87,0.00,,,0.00,WUHU216HW,2013-09-18 09:21:00,
2013-09-18 04:26:00,62.1,58.2,29.44,ESE,113,0.0,1.1,87,0.00,,,0.00,WUHU216HW,2013-09-18 09:26:00,
2013-09-18 04:31:00,61.9,58.0,29.44,SSE,153,0.7,0.9,87,0.00,,,0.00,WUHU216HW,2013-09-18 09:31:00,
2013-09-18 04:36:00,61.9,58.3,29.44,East,89,0.3,2.2,88,0.00,,,0.00,WUHU216HW,2013-09-18 09:36:00,
2013-09-18 04:41:00,61.9,58.3,29.44,SE,135,0.9,2.2,88,0.00,,,0.00,WUHU216HW,2013-09-18 09:41:00,
2013-09-18 04:46:00,61.9,58.3,29.44,South,184,0.6,1.6,88,0.00,,,0.00,WUHU216HW,2013-09-18 09:46:00,
2013-09-18 04:51:00,61.9,58.3,29.43,ESE,113,0.4,1.6,88,0.00,,,0.00,WUHU216HW,2013-09-18 09:51:00,
2013-09-18 04:56:00,61.9,58.0,29.43,East,90,0.4,1.8,87,0.00,,,0.00,WUHU216HW,2013-09-18 09:56:00,
2013-09-18 05:01:00,61.9,58.0,29.43,East,96,0.6,1.8,87,0.00,,,0.00,WUHU216HW,2013-09-18 10:01:00,
2013-09-18 05:06:00,61.7,58.1,29.43,SE,137,0.5,1.1,88,0.00,,,0.00,WUHU216HW,2013-09-18 10:06:00,
2013-09-18 05:11:00,61.7,58.1,29.43,South,170,0.5,2.0,88,0.00,,,0.00,WUHU216HW,2013-09-18 10:11:00,
2013-09-18 05:16:00,61.9,58.0,29.43,SE,135,1.1,2.0,87,0.00,,,0.00,WUHU216HW,2013-09-18 10:16:00,
2013-09-18 05:21:00,61.7,57.8,29.43,NNE,23,0.2,1.8,87,0.00,,,0.00,WUHU216HW,2013-09-18 10:21:00,
2013-09-18 05:26:00,61.7,58.1,29.43,ESE,116,1.0,1.3,88,0.00,,,0.00,WUHU216HW,2013-09-18 10:26:00,
2013-09-18 05:31:00,61.7,57.8,29.43,SW,225,0.4,1.3,87,0.00,,,0.00,WUHU216HW,2013-09-18 10:31:00,
2013-09-18 05:36:00,61.7,57.8,29.43,ESE,105,0.4,1.6,87,0.00,,,0.00,WUHU216HW,2013-09-18 10:36:00,
2013-09-18 05:41:00,61.7,57.8,29.43,East,90,1.1,1.6,87,0.00,,,0.00,WUHU216HW,2013-09-18 10:41:00,
2013-09-18 05:46:00,61.7,57.8,29.43,SE,135,1.1,1.6,87,0.00,,,0.00,WUHU216HW,2013-09-18 10:46:00,
2013-09-18 05:51:00,61.9,58.3,29.43,SSE,156,0.9,1.1,88,0.00,,,0.00,WUHU216HW,2013-09-18 10:51:00,
2013-09-18 05:56:00,62.3,58.4,29.43,ESE,113,0.7,1.1,87,0.00,,,0.00,WUHU216HW,2013-09-18 10:56:00,
2013-09-18 06:01:00,62.5,58.6,29.43,SSE,158,0.0,1.6,87,0.00,,,0.00,WUHU216HW,2013-09-18 11:01:00,
2013-09-18 06:06:00,62.6,58.4,29.42,SW,225,1.6,1.8,86,0.00,,,0.00,WUHU216HW,2013-09-18 11:06:00,
2013-09-18 06:11:00,62.6,58.4,29.43,SSE,151,0.3,2.5,86,0.00,,,0.00,WUHU216HW,2013-09-18 11:11:00,
2013-09-18 06:16:00,62.8,58.6,29.42,SE,135,0.7,2.5,86,0.00,,,0.00,WUHU216HW,2013-09-18 11:16:00,
2013-09-18 06:21:00,62.6,58.4,29.42,SE,135,0.9,1.8,86,0.00,,,0.00,WUHU216HW,2013-09-18 11:21:00,
2013-09-18 06:26:00,62.8,58.6,29.42,SSW,203,1.1,1.8,86,0.00,,,0.00,WUHU216HW,2013-09-18 11:26:00,
2013-09-18 06:31:00,62.8,58.6,29.42,SW,225,1.1,2.0,86,0.00,,,0.00,WUHU216HW,2013-09-18 11:31:00,
2013-09-18 06:36:00,62.8,58.6,29.42,ESE,110,1.5,2.0,86,0.00,,,0.00,WUHU216HW,2013-09-18 11:36:00,
2013-09-18 06:41:00,62.8,58.6,29.42,SSE,156,0.8,1.8,86,0.00,,,0.00,WUHU216HW,2013-09-18 11:41:00,
2013-09-18 06:46:00,62.8,58.6,29.42,East,90,1.1,1.8,86,0.00,,,0.00,WUHU216HW,2013-09-18 11:46:00,
2013-09-18 06:51:00,62.8,58.6,29.42,SE,141,0.3,1.8,86,0.00,,,0.00,WUHU216HW,2013-09-18 11:51:00,
2013-09-18 06:56:00,63.0,58.8,29.42,SE,132,0.8,1.6,86,0.00,,,0.00,WUHU216HW,2013-09-18 11:56:00,
2013-09-18 07:01:00,63.0,58.8,29.42,SE,135,1.1,1.6,86,0.00,,,0.00,WUHU216HW,2013-09-18 12:01:00,
2013-09-18 07:06:00,63.2,59.3,29.42,SE,135,1.1,2.2,87,0.00,,,0.00,WUHU216HW,2013-09-18 12:06:00,
2013-09-18 07:11:00,63.5,59.3,29.42,SSE,163,0.6,2.2,86,0.00,,,0.00,WUHU216HW,2013-09-18 12:11:00,
2013-09-18 07:16:00,63.7,59.5,29.42,SE,135,1.1,3.1,86,0.00,,,0.00,WUHU216HW,2013-09-18 12:16:00,
2013-09-18 07:21:00,64.1,59.9,29.42,WSW,248,1.3,3.1,86,0.00,,,0.00,WUHU216HW,2013-09-18 12:21:00,
2013-09-18 07:26:00,64.3,60.1,29.42,SW,225,1.8,2.2,86,0.00,,,0.00,WUHU216HW,2013-09-18 12:26:00,
2013-09-18 07:31:00,64.4,59.8,29.42,SSW,203,0.8,2.2,85,0.00,,,0.00,WUHU216HW,2013-09-18 12:31:00,
2013-09-18 07:36:00,64.6,60.0,29.42,East,90,2.5,3.1,85,0.00,,,0.00,WUHU216HW,2013-09-18 12:36:00,
2013-09-18 07:41:00,64.8,60.6,29.42,SSE,154,1.3,3.1,86,0.00,,,0.00,WUHU216HW,2013-09-18 12:41:00,
2013-09-18 07:46:00,65.2,60.6,29.42,ENE,68,0.9,2.2,85,0.00,,,0.00,WUHU216HW,2013-09-18 12:46:00,
2013-09-18 07:51:00,65.7,61.1,29.42,SE,135,1.1,3.1,85,0.00,,,0.00,WUHU216HW,2013-09-18 12:51:00,
2013-09-18 07:56:00,66.1,61.5,29.42,SE,135,1.6,3.1,85,0.00,,,0.00,WUHU216HW,2013-09-18 12:56:00,
2013-09-18 08:01:00,66.6,61.7,29.41,SSE,158,1.1,1.8,84,0.00,,,0.00,WUHU216HW,2013-09-18 13:01:00,
2013-09-18 08:06:00,66.6,61.3,29.41,SSE,158,1.6,1.8,83,0.00,,,0.00,WUHU216HW,2013-09-18 13:06:00,
2013-09-18 08:11:00,66.6,61.3,29.41,SSE,158,1.3,2.5,83,0.00,,,0.00,WUHU216HW,2013-09-18 13:11:00,
2013-09-18 08:16:00,67.5,62.2,29.41,ESE,113,1.8,2.5,83,0.00,,,0.00,WUHU216HW,2013-09-18 13:16:00,
2013-09-18 08:21:00,68.8,62.8,29.41,SSW,203,3.4,3.4,81,0.00,,,0.00,WUHU216HW,2013-09-18 13:21:00,
2013-09-18 08:26:00,69.7,63.4,29.41,South,173,1.3,3.4,80,0.00,,,0.00,WUHU216HW,2013-09-18 13:26:00,
2013-09-18 08:31:00,71.1,63.7,29.41,SSE,156,0.6,3.4,77,0.00,,,0.00,WUHU216HW,2013-09-18 13:31:00,
2013-09-18 08:36:00,71.8,64.0,29.41,ESE,113,3.4,3.4,76,0.00,,,0.00,WUHU216HW,2013-09-18 13:36:00,
2013-09-18 08:41:00,72.4,64.9,29.41,South,180,3.4,3.4,77,0.00,,,0.00,WUHU216HW,2013-09-18 13:41:00,
2013-09-18 08:46:00,73.1,64.9,29.41,SSW,203,2.7,5.8,75,0.00,,,0.00,WUHU216HW,2013-09-18 13:46:00,
2013-09-18 08:51:00,72.7,64.9,29.41,SE,135,1.8,5.8,76,0.00,,,0.00,WUHU216HW,2013-09-18 13:51:00,
2013-09-18 08:56:00,72.4,64.6,29.41,SSE,158,3.4,4.3,76,0.00,,,0.00,WUHU216HW,2013-09-18 13:56:00,
2013-09-18 09:00:00,71.6,63.8,29.41,SW,225,1.9,5.4,76,0.00,,,0.00,WUHU216HW,2013-09-18 14:00:00,
2013-09-18 09:05:00,71.6,64.2,29.41,SE,130,2.4,5.4,77,0.00,,,0.00,WUHU216HW,2013-09-18 14:05:00,
2013-09-18 09:10:00,70.9,64.5,29.42,South,189,3.2,4.0,80,0.01,,,0.01,WUHU216HW,2013-09-18 14:10:00,
2013-09-18 09:16:00,69.5,63.9,29.41,SSE,158,1.8,4.0,82,0.02,,,0.02,WUHU216HW,2013-09-18 14:16:00,
2013-09-18 09:21:00,68.4,63.8,29.41,South,187,0.8,4.0,85,0.02,,,0.02,WUHU216HW,2013-09-18 14:21:00,
2013-09-18 09:26:00,68.0,64.0,29.42,SE,130,1.9,4.0,87,0.02,,,0.02,WUHU216HW,2013-09-18 14:26:00,
2013-09-18 09:31:00,67.7,63.7,29.41,NW,315,2.7,5.1,87,0.02,,,0.02,WUHU216HW,2013-09-18 14:31:00,
2013-09-18 09:36:00,67.5,63.8,29.41,SSE,168,1.8,5.1,88,0.02,,,0.02,WUHU216HW,2013-09-18 14:36:00,
2013-09-18 09:41:00,67.3,64.0,29.41,SSW,192,2.1,3.6,89,0.03,,,0.03,WUHU216HW,2013-09-18 14:41:00,
2013-09-18 09:46:00,67.3,64.0,29.41,SSW,213,2.1,4.0,89,0.03,,,0.03,WUHU216HW,2013-09-18 14:46:00,
2013-09-18 09:51:00,67.3,64.3,29.41,SSW,203,1.1,4.0,90,0.03,,,0.03,WUHU216HW,2013-09-18 14:51:00,
2013-09-18 09:56:00,67.3,64.6,29.41,South,180,2.5,2.5,91,0.03,,,0.03,WUHU216HW,2013-09-18 14:56:00,
2013-09-18 10:01:00,67.5,64.8,29.41,NE,53,1.5,2.5,91,0.03,,,0.03,WUHU216HW,2013-09-18 15:01:00,
2013-09-18 10:06:00,67.9,65.5,29.41,South,183,1.1,2.5,92,0.03,,,0.03,WUHU216HW,2013-09-18 15:06:00,
2013-09-18 10:11:00,68.0,65.3,29.41,ESE,113,0.9,2.2,91,0.01,,,0.03,WUHU216HW,2013-09-18 15:11:00,
2013-09-18 10:16:00,68.8,66.1,29.41,ENE,68,2.9,3.8,91,0.01,,,0.03,WUHU216HW,2013-09-18 15:16:00,
2013-09-18 10:21:00,69.3,66.3,29.41,South,187,1.7,3.8,90,0.01,,,0.03,WUHU216HW,2013-09-18 15:21:00,
2013-09-18 10:26:00,70.0,66.6,29.41,SSE,158,2.2,4.0,89,0.01,,,0.03,WUHU216HW,2013-09-18 15:26:00,
2013-09-18 10:31:00,70.7,67.0,29.41,SE,139,1.9,4.0,88,0.01,,,0.03,WUHU216HW,2013-09-18 15:31:00,
2013-09-18 10:36:00,72.0,67.6,29.41,South,180,1.8,2.7,86,0.00,,,0.03,WUHU216HW,2013-09-18 15:36:00,
2013-09-18 10:41:00,73.1,68.4,29.41,South,185,1.8,3.1,85,0.00,,,0.03,WUHU216HW,2013-09-18 15:41:00,
2013-09-18 10:46:00,73.8,68.7,29.41,WNW,293,1.3,4.0,84,0.00,,,0.03,WUHU216HW,2013-09-18 15:46:00,
2013-09-18 10:51:00,74.5,68.7,29.41,SE,135,2.2,4.0,82,0.00,,,0.03,WUHU216HW,2013-09-18 15:51:00,
2013-09-18 10:56:00,75.4,69.3,29.40,SSE,154,1.7,3.6,81,0.00,,,0.03,WUHU216HW,2013-09-18 15:56:00,
2013-09-18 11:01:00,76.3,70.5,29.40,ENE,68,1.6,3.6,82,0.00,,,0.03,WUHU216HW,2013-09-18 16:01:00,
2013-09-18 11:06:00,77.2,70.3,29.40,SSW,203,1.8,3.4,79,0.00,,,0.03,WUHU216HW,2013-09-18 16:06:00,
2013-09-18 11:11:00,77.0,69.0,29.40,SW,225,2.7,3.1,76,0.00,,,0.03,WUHU216HW,2013-09-18 16:11:00,
2013-09-18 11:16:00,76.7,69.5,29.40,ESE,117,1.7,3.4,78,0.00,,,0.03,WUHU216HW,2013-09-18 16:16:00,
2013-09-18 11:21:00,77.2,70.0,29.40,ESE,118,1.4,3.4,78,0.00,,,0.03,WUHU216HW,2013-09-18 16:21:00,
2013-09-18 11:26:00,78.3,70.7,29.40,SE,135,3.6,3.6,77,0.00,,,0.03,WUHU216HW,2013-09-18 16:26:00,
2013-09-18 11:31:00,79.2,70.8,29.39,East,90,1.6,3.6,75,0.00,,,0.03,WUHU216HW,2013-09-18 16:31:00,
2013-09-18 11:36:00,80.5,71.7,29.39,ESE,113,1.8,3.8,74,0.00,,,0.03,WUHU216HW,2013-09-18 16:36:00,
2013-09-18 11:41:00,81.4,70.9,29.39,SSW,194,2.0,3.8,70,0.00,,,0.03,WUHU216HW,2013-09-18 16:41:00,
2013-09-18 11:46:00,82.3,71.4,29.39,ESE,113,2.5,3.4,69,0.00,,,0.03,WUHU216HW,2013-09-18 16:46:00,
2013-09-18 11:51:00,82.1,70.3,29.39,South,189,2.2,3.6,67,0.00,,,0.03,WUHU216HW,2013-09-18 16:51:00,
2013-09-18 11:56:00,81.4,70.5,29.39,SSW,203,2.2,3.6,69,0.00,,,0.03,WUHU216HW,2013-09-18 16:56:00,
2013-09-18 12:01:00,81.2,70.8,29.39,SW,225,4.0,4.0,70,0.00,,,0.03,WUHU216HW,2013-09-18 17:01:00,
2013-09-18 12:06:00,81.5,70.6,29.39,West,270,2.2,4.0,69,0.00,,,0.03,WUHU216HW,2013-09-18 17:06:00,
2013-09-18 12:11:00,82.1,70.8,29.39,ESE,116,2.7,5.1,68,0.00,,,0.03,WUHU216HW,2013-09-18 17:11:00,
2013-09-18 12:16:00,82.4,70.6,29.38,SE,135,1.8,5.1,67,0.00,,,0.03,WUHU216HW,2013-09-18 17:16:00,
2013-09-18 12:21:00,83.9,72.1,29.38,WSW,248,1.3,4.0,67,0.00,,,0.03,WUHU216HW,2013-09-18 17:21:00,
2013-09-18 12:26:00,84.8,72.0,29.38,ESE,110,2.7,3.6,65,0.00,,,0.03,WUHU216HW,2013-09-18 17:26:00,
2013-09-18 12:31:00,85.0,71.8,29.38,ESE,112,3.1,3.8,64,0.00,,,0.03,WUHU216HW,2013-09-18 17:31:00,
2013-09-18 12:36:00,84.2,71.5,29.38,SE,130,1.5,4.5,65,0.00,,,0.03,WUHU216HW,2013-09-18 17:36:00,
2013-09-18 12:41:00,84.1,71.4,29.37,SSW,211,1.6,4.5,65,0.00,,,0.03,WUHU216HW,2013-09-18 17:41:00,
2013-09-18 12:46:00,84.6,71.9,29.37,ESE,112,1.2,4.3,65,0.00,,,0.03,WUHU216HW,2013-09-18 17:46:00,
2013-09-18 12:51:00,85.9,72.6,29.37,South,180,1.5,3.1,64,0.00,,,0.03,WUHU216HW,2013-09-18 17:51:00,
2013-09-18 12:56:00,87.5,73.2,29.37,SSW,203,2.0,2.7,62,0.00,,,0.03,WUHU216HW,2013-09-18 17:56:00,
2013-09-18 13:01:00,89.1,72.7,29.37,South,180,4.0,4.0,58,0.00,,,0.03,WUHU216HW,2013-09-18 18:01:00,
2013-09-18 13:06:00,88.9,72.5,29.37,South,180,2.9,4.0,58,0.00,,,0.03,WUHU216HW,2013-09-18 18:06:00,
2013-09-18 13:12:00,88.7,72.4,29.37,East,99,3.1,5.4,58,0.00,,,0.03,WUHU216HW,2013-09-18 18:12:00,
2013-09-18 13:17:00,88.6,72.8,29.37,East,90,2.7,6.3,59,0.00,,,0.03,WUHU216HW,2013-09-18 18:17:00,
2013-09-18 13:22:00,89.3,72.4,29.37,East,90,2.9,6.3,57,0.00,,,0.03,WUHU216HW,2013-09-18 18:22:00,
2013-09-18 13:27:00,89.3,72.4,29.36,SSW,203,2.6,5.1,57,0.00,,,0.03,WUHU216HW,2013-09-18 18:27:00,
2013-09-18 13:32:00,89.5,72.0,29.36,East,98,2.6,4.5,56,0.00,,,0.03,WUHU216HW,2013-09-18 18:32:00,
2013-09-18 13:37:00,89.1,72.7,29.35,SSE,158,2.5,4.5,58,0.00,,,0.03,WUHU216HW,2013-09-18 18:37:00,
2013-09-18 13:42:00,88.6,72.3,29.35,ESE,113,3.4,3.8,58,0.00,,,0.03,WUHU216HW,2013-09-18 18:42:00,
2013-09-18 13:47:00,89.3,71.9,29.35,ESE,113,4.5,5.4,56,0.00,,,0.03,WUHU216HW,2013-09-18 18:47:00,
2013-09-18 13:52:00,89.1,72.2,29.34,SE,135,2.9,5.4,57,0.00,,,0.03,WUHU216HW,2013-09-18 18:52:00,
2013-09-18 13:57:00,89.8,72.9,29.34,SE,135,4.7,4.7,57,0.00,,,0.03,WUHU216HW,2013-09-18 18:57:00,
2013-09-18 14:02:00,90.0,71.4,29.34,SSE,153,2.9,6.3,54,0.00,,,0.03,WUHU216HW,2013-09-18 19:02:00,
2013-09-18 14:07:00,90.2,72.2,29.34,WNW,301,3.2,6.3,55,0.00,,,0.03,WUHU216HW,2013-09-18 19:07:00,
2013-09-18 14:12:00,90.4,71.8,29.34,SSE,158,3.8,5.4,54,0.00,,,0.03,WUHU216HW,2013-09-18 19:12:00,
2013-09-18 14:17:00,91.1,71.9,29.33,South,185,2.9,5.4,53,0.00,,,0.03,WUHU216HW,2013-09-18 19:17:00,
2013-09-18 14:22:00,91.4,72.2,29.33,SSW,203,2.9,5.4,53,0.00,,,0.03,WUHU216HW,2013-09-18 19:22:00,
2013-09-18 14:27:00,91.4,72.7,29.33,ESE,113,4.3,5.4,54,0.00,,,0.03,WUHU216HW,2013-09-18 19:27:00,
2013-09-18 14:32:00,91.4,72.2,29.32,SE,128,3.9,5.1,53,0.00,,,0.03,WUHU216HW,2013-09-18 19:32:00,
2013-09-18 14:37:00,91.1,72.4,29.32,ENE,75,2.6,5.1,54,0.00,,,0.03,WUHU216HW,2013-09-18 19:37:00,
2013-09-18 14:42:00,90.5,71.9,29.32,South,185,3.9,5.1,54,0.00,,,0.03,WUHU216HW,2013-09-18 19:42:00,
2013-09-18 14:47:00,89.6,71.6,29.32,SW,225,2.5,5.1,55,0.00,,,0.03,WUHU216HW,2013-09-18 19:47:00,
2013-09-18 14:52:00,90.4,72.3,29.32,SSE,154,3.1,4.9,55,0.00,,,0.03,WUHU216HW,2013-09-18 19:52:00,
2013-09-18 14:57:00,91.1,73.0,29.32,SE,135,2.7,4.3,55,0.00,,,0.03,WUHU216HW,2013-09-18 19:57:00,
2013-09-18 15:02:00,92.2,72.9,29.32,SSE,158,2.9,4.0,53,0.00,,,0.03,WUHU216HW,2013-09-18 20:02:00,
2013-09-18 15:07:00,92.5,72.6,29.31,NNE,23,3.6,4.7,52,0.00,,,0.03,WUHU216HW,2013-09-18 20:07:00,
2013-09-18 15:12:00,92.3,73.0,29.30,ENE,68,2.7,6.5,53,0.00,,,0.03,WUHU216HW,2013-09-18 20:12:00,
2013-09-18 15:17:00,92.3,73.0,29.30,SSE,155,3.4,6.5,53,0.00,,,0.03,WUHU216HW,2013-09-18 20:17:00,
2013-09-18 15:22:00,92.5,73.2,29.30,SSW,207,2.6,6.3,53,0.00,,,0.03,WUHU216HW,2013-09-18 20:22:00,
2013-09-18 15:27:00,92.3,72.4,29.30,SE,135,3.4,4.5,52,0.00,,,0.03,WUHU216HW,2013-09-18 20:27:00,
2013-09-18 15:32:00,92.5,72.6,29.30,NNE,23,2.9,4.5,52,0.00,,,0.03,WUHU216HW,2013-09-18 20:32:00,
2013-09-18 15:37:00,92.9,72.4,29.29,SW,225,3.8,5.4,51,0.00,,,0.03,WUHU216HW,2013-09-18 20:37:00,
2013-09-18 15:42:00,93.4,72.8,29.29,SE,145,3.2,5.4,51,0.00,,,0.03,WUHU216HW,2013-09-18 20:42:00,
2013-09-18 15:47:00,94.3,73.1,29.29,South,180,1.6,4.3,50,0.00,,,0.03,WUHU216HW,2013-09-18 20:47:00,
2013-09-18 15:52:00,94.3,73.1,29.29,South,187,3.2,4.7,50,0.00,,,0.03,WUHU216HW,2013-09-18 20:52:00,
2013-09-18 15:57:00,93.6,71.8,29.29,WSW,248,5.8,5.8,49,0.00,,,0.03,WUHU216HW,2013-09-18 20:57:00,
2013-09-18 16:02:00,93.4,72.8,29.29,SSW,203,2.5,5.8,51,0.00,,,0.03,WUHU216HW,2013-09-18 21:02:00,
2013-09-18 16:07:00,94.1,73.5,29.29,SE,128,2.6,4.3,51,0.00,,,0.03,WUHU216HW,2013-09-18 21:07:00,
2013-09-18 16:12:00,94.1,72.3,29.29,ESE,110,2.9,4.9,49,0.00,,,0.03,WUHU216HW,2013-09-18 21:12:00,
2013-09-18 16:17:00,94.7,74.0,29.29,NW,315,3.1,4.9,51,0.00,,,0.03,WUHU216HW,2013-09-18 21:17:00,
2013-09-18 16:22:00,95.0,73.1,29.28,East,97,1.9,3.6,49,0.00,,,0.03,WUHU216HW,2013-09-18 21:22:00,
2013-09-18 16:27:00,95.0,73.1,29.28,SSW,197,2.6,4.7,49,0.00,,,0.03,WUHU216HW,2013-09-18 21:27:00,
2013-09-18 16:32:00,95.0,73.1,29.28,ESE,113,2.7,4.7,49,0.00,,,0.03,WUHU216HW,2013-09-18 21:32:00,
2013-09-18 16:38:00,93.1,72.0,29.29,SE,139,2.6,5.4,50,0.00,,,0.03,WUHU216HW,2013-09-18 21:38:00,
2013-09-18 16:43:00,92.0,72.1,29.29,ESE,119,2.7,5.4,52,0.00,,,0.03,WUHU216HW,2013-09-18 21:43:00,
2013-09-18 16:47:00,92.2,72.9,29.28,SSE,158,1.1,4.3,53,0.00,,,0.03,WUHU216HW,2013-09-18 21:47:00,
2013-09-18 16:53:00,92.2,72.3,29.29,SSW,193,3.6,5.8,52,0.00,,,0.03,WUHU216HW,2013-09-18 21:53:00,
2013-09-18 16:57:00,90.4,71.8,29.28,SSE,159,2.7,5.8,54,0.00,,,0.03,WUHU216HW,2013-09-18 21:57:00,
2013-09-18 17:03:00,89.3,71.9,29.28,SE,135,2.7,4.0,56,0.00,,,0.03,WUHU216HW,2013-09-18 22:03:00,
2013-09-18 17:08:00,88.9,72.0,29.28,SE,135,4.0,4.0,57,0.00,,,0.03,WUHU216HW,2013-09-18 22:08:00,
2013-09-18 17:13:00,88.9,72.5,29.28,NE,45,1.8,4.0,58,0.00,,,0.03,WUHU216HW,2013-09-18 22:13:00,
2013-09-18 17:18:00,88.9,72.0,29.28,ESE,108,2.1,4.3,57,0.00,,,0.03,WUHU216HW,2013-09-18 22:18:00,
2013-09-18 17:23:00,88.9,72.0,29.28,ENE,68,2.9,4.7,57,0.00,,,0.03,WUHU216HW,2013-09-18 22:23:00,
2013-09-18 17:28:00,88.7,71.8,29.27,ESE,113,3.8,4.7,57,0.00,,,0.03,WUHU216HW,2013-09-18 22:28:00,
2013-09-18 17:33:00,88.6,71.7,29.27,ESE,113,2.7,4.0,57,0.00,,,0.03,WUHU216HW,2013-09-18 22:33:00,
2013-09-18 17:38:00,88.4,72.1,29.27,WSW,242,2.6,3.8,58,0.00,,,0.03,WUHU216HW,2013-09-18 22:38:00,
2013-09-18 17:43:00,88.4,72.1,29.27,WSW,248,1.8,3.6,58,0.00,,,0.03,WUHU216HW,2013-09-18 22:43:00,
2013-09-18 17:48:00,88.0,71.7,29.27,South,180,2.5,4.5,58,0.00,,,0.03,WUHU216HW,2013-09-18 22:48:00,
2013-09-18 17:53:00,87.8,72.0,29.27,ENE,68,4.3,4.5,59,0.00,,,0.03,WUHU216HW,2013-09-18 22:53:00,
2013-09-18 17:58:00,87.5,71.7,29.27,SSE,158,3.2,4.3,59,0.00,,,0.03,WUHU216HW,2013-09-18 22:58:00,
2013-09-18 18:03:00,87.1,71.9,29.28,SE,140,2.3,4.5,60,0.00,,,0.03,WUHU216HW,2013-09-18 23:03:00,
2013-09-18 18:08:00,86.8,71.6,29.28,ENE,68,4.0,4.9,60,0.00,,,0.03,WUHU216HW,2013-09-18 23:08:00,
2013-09-18 18:13:00,86.4,71.7,29.28,SW,225,3.4,4.9,61,0.00,,,0.03,WUHU216HW,2013-09-18 23:13:00,
2013-09-18 18:18:00,86.0,71.8,29.27,SSE,165,1.3,4.0,62,0.00,,,0.03,WUHU216HW,2013-09-18 23:18:00,
2013-09-18 18:23:00,86.0,71.8,29.28,SE,141,1.0,4.7,62,0.00,,,0.03,WUHU216HW,2013-09-18 23:23:00,
2013-09-18 18:28:00,85.9,71.7,29.28,WSW,248,2.5,4.7,62,0.00,,,0.03,WUHU216HW,2013-09-18 23:28:00,
2013-09-18 18:33:00,85.7,72.0,29.27,ESE,122,3.4,4.7,63,0.00,,,0.03,WUHU216HW,2013-09-18 23:33:00,
2013-09-18 18:38:00,85.3,71.6,29.27,East,90,4.0,4.7,63,0.00,,,0.03,WUHU216HW,2013-09-18 23:38:00,
2013-09-18 18:43:00,85.0,71.8,29.28,ESE,118,1.9,4.0,64,0.00,,,0.03,WUHU216HW,2013-09-18 23:43:00,
2013-09-18 18:48:00,84.6,71.9,29.28,South,180,1.8,4.0,65,0.00,,,0.03,WUHU216HW,2013-09-18 23:48:00,
2013-09-18 18:53:00,84.4,71.7,29.28,SSE,158,1.1,4.7,65,0.00,,,0.03,WUHU216HW,2013-09-18 23:53:00,
2013-09-18 18:58:00,84.2,71.5,29.27,SSE,158,1.8,4.7,65,0.00,,,0.03,WUHU216HW,2013-09-18 23:58:00,
2013-09-18 19:03:00,84.1,71.8,29.27,SE,128,1.3,2.9,66,0.00,,,0.03,WUHU216HW,2013-09-19 00:03:00,
2013-09-18 19:08:00,83.9,71.6,29.27,SSE,158,1.1,3.1,66,0.00,,,0.03,WUHU216HW,2013-09-19 00:08:00,
2013-09-18 19:13:00,83.5,71.7,29.27,ESE,113,1.0,3.1,67,0.00,,,0.03,WUHU216HW,2013-09-19 00:13:00,
2013-09-18 19:18:00,83.2,71.8,29.27,SSE,168,1.6,2.7,68,0.00,,,0.03,WUHU216HW,2013-09-19 00:18:00,
2013-09-18 19:23:00,83.0,71.6,29.28,SSW,203,1.8,2.5,68,0.00,,,0.03,WUHU216HW,2013-09-19 00:23:00,
2013-09-18 19:28:00,82.8,71.5,29.28,SSE,164,1.3,2.7,68,0.00,,,0.03,WUHU216HW,2013-09-19 00:28:00,
2013-09-18 19:33:00,82.4,70.6,29.28,ESE,113,0.7,3.1,67,0.00,,,0.03,WUHU216HW,2013-09-19 00:33:00,
2013-09-18 19:38:00,82.3,70.5,29.28,South,180,0.9,3.1,67,0.00,,,0.03,WUHU216HW,2013-09-19 00:38:00,
2013-09-18 19:43:00,81.9,70.6,29.28,ESE,113,1.8,2.5,68,0.00,,,0.03,WUHU216HW,2013-09-19 00:43:00,
2013-09-18 19:48:00,81.9,70.6,29.28,WNW,293,1.6,2.5,68,0.00,,,0.03,WUHU216HW,2013-09-19 00:48:00,
2013-09-18 19:53:00,81.7,70.4,29.28,ESE,113,1.3,2.5,68,0.00,,,0.03,WUHU216HW,2013-09-19 00:53:00,
2013-09-18 19:58:00,81.5,70.6,29.28,SE,135,3.4,3.4,69,0.00,,,0.03,WUHU216HW,2013-09-19 00:58:00,
2013-09-18 20:03:00,81.5,70.6,29.29,ESE,113,3.8,3.8,69,0.00,,,0.03,WUHU216HW,2013-09-19 01:03:00,
2013-09-18 20:08:00,81.4,70.5,29.29,SW,219,1.1,3.8,69,0.00,,,0.03,WUHU216HW,2013-09-19 01:08:00,
2013-09-18 20:13:00,81.4,70.9,29.29,SE,140,1.7,3.8,70,0.00,,,0.03,WUHU216HW,2013-09-19 01:13:00,
2013-09-18 20:18:00,81.2,70.8,29.29,SSE,148,1.7,3.4,70,0.00,,,0.03,WUHU216HW,2013-09-19 01:18:00,
2013-09-18 20:23:00,81.0,70.6,29.29,SE,139,1.5,3.1,70,0.00,,,0.03,WUHU216HW,2013-09-19 01:23:00,
2013-09-18 20:28:00,80.8,70.4,29.29,SSE,150,0.7,3.1,70,0.00,,,0.03,WUHU216HW,2013-09-19 01:28:00,
2013-09-18 20:33:00,80.5,70.9,29.29,SW,225,0.8,2.5,72,0.00,,,0.03,WUHU216HW,2013-09-19 01:33:00,
2013-09-18 20:38:00,80.1,70.5,29.29,ESE,113,1.1,2.5,72,0.00,,,0.03,WUHU216HW,2013-09-19 01:38:00,
2013-09-18 20:43:00,79.9,70.7,29.30,West,270,2.7,3.1,73,0.00,,,0.03,WUHU216HW,2013-09-19 01:43:00,
2013-09-18 20:48:00,79.9,70.7,29.30,SSE,156,0.9,3.1,73,0.00,,,0.03,WUHU216HW,2013-09-19 01:48:00,
2013-09-18 20:53:00,79.6,70.8,29.30,SW,233,1.5,3.1,74,0.00,,,0.03,WUHU216HW,2013-09-19 01:53:00,
2013-09-18 20:58:00,79.4,70.6,29.30,SSW,212,0.3,3.1,74,0.00,,,0.03,WUHU216HW,2013-09-19 01:58:00,
2013-09-18 21:03:00,79.2,70.8,29.30,South,180,2.2,2.5,75,0.00,,,0.03,WUHU216HW,2013-09-19 02:03:00,
2013-09-18 21:08:00,79.0,70.6,29.30,ESE,113,0.4,2.5,75,0.00,,,0.03,WUHU216HW,2013-09-19 02:08:00,
2013-09-18 21:13:00,78.8,70.8,29.30,SE,135,1.1,1.8,76,0.00,,,0.03,WUHU216HW,2013-09-19 02:13:00,
2013-09-18 21:18:00,78.3,70.3,29.30,ESE,123,1.0,2.2,76,0.00,,,0.03,WUHU216HW,2013-09-19 02:18:00,
2013-09-18 21:23:00,78.1,70.1,29.30,ESE,111,1.0,2.2,76,0.00,,,0.03,WUHU216HW,2013-09-19 02:23:00,
2013-09-18 21:28:00,78.1,70.5,29.30,SE,134,0.5,2.0,77,0.00,,,0.03,WUHU216HW,2013-09-19 02:28:00,
2013-09-18 21:33:00,77.8,70.6,29.30,SSW,203,1.8,2.0,78,0.00,,,0.03,WUHU216HW,2013-09-19 02:33:00,
2013-09-18 21:38:00,77.6,70.4,29.31,SE,135,0.4,1.8,78,0.00,,,0.03,WUHU216HW,2013-09-19 02:38:00,
2013-09-18 21:43:00,77.4,70.2,29.31,South,170,0.5,1.8,78,0.00,,,0.03,WUHU216HW,2013-09-19 02:43:00,
2013-09-18 21:48:00,77.0,70.1,29.31,SE,128,0.5,2.0,79,0.00,,,0.03,WUHU216HW,2013-09-19 02:48:00,
2013-09-18 21:53:00,76.9,70.8,29.31,SSE,164,1.3,2.0,81,0.00,,,0.03,WUHU216HW,2013-09-19 02:53:00,
2013-09-18 21:58:00,76.9,70.8,29.31,SSE,158,2.0,2.5,81,0.00,,,0.03,WUHU216HW,2013-09-19 02:58:00,
2013-09-18 22:03:00,76.7,70.6,29.31,South,175,1.3,2.5,81,0.00,,,0.03,WUHU216HW,2013-09-19 03:03:00,
2013-09-18 22:08:00,76.7,70.6,29.31,SW,216,0.8,2.0,81,0.00,,,0.03,WUHU216HW,2013-09-19 03:08:00,
2013-09-18 22:13:00,76.3,70.2,29.31,SSE,165,0.9,1.8,81,0.00,,,0.03,WUHU216HW,2013-09-19 03:13:00,
2013-09-18 22:19:00,76.3,70.5,29.31,SSE,165,1.6,2.2,82,0.00,,,0.03,WUHU216HW,2013-09-19 03:19:00,
2013-09-18 22:23:00,76.3,70.5,29.31,SE,142,1.6,2.5,82,0.00,,,0.03,WUHU216HW,2013-09-19 03:23:00,
2013-09-18 22:29:00,76.3,70.5,29.31,South,180,1.1,2.5,82,0.00,,,0.03,WUHU216HW,2013-09-19 03:29:00,
2013-09-18 22:34:00,76.1,70.3,29.31,SW,225,1.8,2.5,82,0.00,,,0.03,WUHU216HW,2013-09-19 03:34:00,
2013-09-18 22:39:00,76.1,70.7,29.31,South,180,2.7,2.7,83,0.00,,,0.03,WUHU216HW,2013-09-19 03:39:00,
2013-09-18 22:44:00,76.0,70.6,29.31,South,186,1.6,2.7,83,0.00,,,0.03,WUHU216HW,2013-09-19 03:44:00,
2013-09-18 22:49:00,75.8,70.4,29.31,SSE,158,1.2,2.5,83,0.00,,,0.03,WUHU216HW,2013-09-19 03:49:00,
2013-09-18 22:54:00,75.8,70.7,29.31,South,169,1.4,2.5,84,0.00,,,0.03,WUHU216HW,2013-09-19 03:54:00,
2013-09-18 22:59:00,75.8,70.4,29.31,SSE,158,0.8,2.5,83,0.00,,,0.03,WUHU216HW,2013-09-19 03:59:00,
2013-09-18 23:01:00,75.6,70.5,29.31,ESE,113,1.6,2.2,84,0.00,,,0.03,WUHU216HW,2013-09-19 04:01:00,
2013-09-18 23:06:00,75.4,70.3,29.31,SSW,201,1.0,2.7,84,0.00,,,0.03,WUHU216HW,2013-09-19 04:06:00,
2013-09-18 23:08:00,75.2,70.5,29.31,West,267,1.7,3.4,85,0.00,,,0.03,WUHU216HW,2013-09-19 04:08:00,
2013-09-18 23:13:00,75.2,70.1,29.31,NE,45,1.8,3.4,84,0.00,,,0.03,WUHU216HW,2013-09-19 04:13:00,
2013-09-18 23:18:00,75.2,70.5,29.31,South,180,1.6,3.4,85,0.00,,,0.03,WUHU216HW,2013-09-19 04:18:00,
2013-09-18 23:23:00,75.1,70.4,29.32,SE,136,1.3,3.4,85,0.00,,,0.03,WUHU216HW,2013-09-19 04:23:00,
2013-09-18 23:28:00,75.1,70.4,29.32,SE,143,1.4,3.1,85,0.00,,,0.03,WUHU216HW,2013-09-19 04:28:00,
2013-09-18 23:33:00,74.9,70.2,29.32,SSW,199,0.9,2.5,85,0.00,,,0.03,WUHU216HW,2013-09-19 04:33:00,
2013-09-18 23:38:00,74.9,70.2,29.32,ESE,113,1.1,2.9,85,0.00,,,0.03,WUHU216HW,2013-09-19 04:38:00,
2013-09-18 23:43:00,74.9,70.2,29.32,South,180,4.3,4.3,85,0.00,,,0.03,WUHU216HW,2013-09-19 04:43:00,
2013-09-18 23:48:00,74.9,70.2,29.32,East,90,2.5,4.7,85,0.00,,,0.03,WUHU216HW,2013-09-19 04:48:00,
2013-09-18 23:53:00,74.9,70.5,29.32,WSW,248,1.8,4.7,86,0.00,,,0.03,WUHU216HW,2013-09-19 04:53:00,
2013-09-18 23:58:00,74.9,70.2,29.32,South,186,1.5,3.4,85,0.00,,,0.03,WUHU216HW,2013-09-19 04:58:00,